sensor_id;sensor_type;location;lat;lon;timestamp;temperature;humidity
12911;DHT22;6523;49.758;6.120;2023-02-24T00:01:35;6.50;99.90
12911;DHT22;6523;49.758;6.120;2023-02-24T00:04:04;6.50;99.90
12911;DHT22;6523;49.758;6.120;2023-02-24T00:06:35;6.50;99.90
12911;DHT22;6523;49.758;6.120;2023-02-24T00:09:07;6.60;99.90
12911;DHT22;6523;49.758;6.120;2023-02-24T00:11:35;6.60;99.90
12911;DHT22;6523;49.758;6.120;2023-02-24T00:14:04;6.60;99.90
12911;DHT22;6523;49.758;6.120;2023-02-24T00:16:30;6.60;99.90
12911;DHT22;6523;49.758;6.120;2023-02-24T00:18:56;6.60;99.90
12911;DHT22;6523;49.758;6.120;2023-02-24T00:21:22;6.60;99.90
12911;DHT22;6523;49.758;6.120;2023-02-24T00:23:48;6.60;99.90
12911;DHT22;6523;49.758;6.120;2023-02-24T00:26:15;6.60;99.90
12911;DHT22;6523;49.758;6.120;2023-02-24T00:28:41;6.60;99.90
12911;DHT22;6523;49.758;6.120;2023-02-24T00:31:09;6.60;99.90
12911;DHT22;6523;49.758;6.120;2023-02-24T00:33:36;6.50;99.90
12911;DHT22;6523;49.758;6.120;2023-02-24T00:36:15;6.50;99.90
12911;DHT22;6523;49.758;6.120;2023-02-24T00:38:41;6.50;99.90
12911;DHT22;6523;49.758;6.120;2023-02-24T00:41:13;6.60;99.90
12911;DHT22;6523;49.758;6.120;2023-02-24T00:43:41;6.60;99.90
12911;DHT22;6523;49.758;6.120;2023-02-24T00:46:14;6.60;99.90
12911;DHT22;6523;49.758;6.120;2023-02-24T00:48:43;6.60;99.90
12911;DHT22;6523;49.758;6.120;2023-02-24T00:51:11;6.50;99.90
12911;DHT22;6523;49.758;6.120;2023-02-24T00:53:37;6.50;99.90
12911;DHT22;6523;49.758;6.120;2023-02-24T00:56:07;6.50;99.90
12911;DHT22;6523;49.758;6.120;2023-02-24T00:58:37;6.50;99.90
12911;DHT22;6523;49.758;6.120;2023-02-24T01:01:02;6.60;99.90
12911;DHT22;6523;49.758;6.120;2023-02-24T01:03:30;6.60;99.90
12911;DHT22;6523;49.758;6.120;2023-02-24T01:06:00;6.60;99.90
12911;DHT22;6523;49.758;6.120;2023-02-24T01:08:26;6.50;99.90
12911;DHT22;6523;49.758;6.120;2023-02-24T01:10:59;6.40;99.90
12911;DHT22;6523;49.758;6.120;2023-02-24T01:13:44;6.30;99.90
12911;DHT22;6523;49.758;6.120;2023-02-24T01:16:12;6.30;99.90
12911;DHT22;6523;49.758;6.120;2023-02-24T01:18:40;6.30;99.90
12911;DHT22;6523;49.758;6.120;2023-02-24T01:21:06;6.30;99.90
12911;DHT22;6523;49.758;6.120;2023-02-24T01:23:32;6.30;99.90
12911;DHT22;6523;49.758;6.120;2023-02-24T01:25:58;6.30;99.90
12911;DHT22;6523;49.758;6.120;2023-02-24T01:28:25;6.40;99.90
12911;DHT22;6523;49.758;6.120;2023-02-24T01:30:52;6.30;99.90
12911;DHT22;6523;49.758;6.120;2023-02-24T01:33:18;6.30;99.90
12911;DHT22;6523;49.758;6.120;2023-02-24T01:35:44;6.30;99.90
12911;DHT22;6523;49.758;6.120;2023-02-24T01:38:10;6.30;99.90
12911;DHT22;6523;49.758;6.120;2023-02-24T01:40:36;6.40;99.90
12911;DHT22;6523;49.758;6.120;2023-02-24T01:43:01;6.30;99.90
12911;DHT22;6523;49.758;6.120;2023-02-24T01:45:33;6.40;99.90
12911;DHT22;6523;49.758;6.120;2023-02-24T01:48:03;6.30;99.90
12911;DHT22;6523;49.758;6.120;2023-02-24T01:50:31;6.30;99.90
12911;DHT22;6523;49.758;6.120;2023-02-24T01:53:01;6.30;99.90
12911;DHT22;6523;49.758;6.120;2023-02-24T01:55:42;6.20;99.90
12911;DHT22;6523;49.758;6.120;2023-02-24T01:58:12;6.30;99.90
12911;DHT22;6523;49.758;6.120;2023-02-24T02:00:41;6.20;99.90
12911;DHT22;6523;49.758;6.120;2023-02-24T02:05:44;6.30;99.90
12911;DHT22;6523;49.758;6.120;2023-02-24T02:08:14;6.30;99.90
12911;DHT22;6523;49.758;6.120;2023-02-24T02:10:42;6.20;99.90
12911;DHT22;6523;49.758;6.120;2023-02-24T02:13:13;6.20;99.90
12911;DHT22;6523;49.758;6.120;2023-02-24T02:19:03;6.10;99.90
12911;DHT22;6523;49.758;6.120;2023-02-24T02:21:45;6.00;99.90
12911;DHT22;6523;49.758;6.120;2023-02-24T02:24:50;6.10;99.90
12911;DHT22;6523;49.758;6.120;2023-02-24T02:27:41;6.10;99.90
12911;DHT22;6523;49.758;6.120;2023-02-24T02:30:27;6.20;99.90
12911;DHT22;6523;49.758;6.120;2023-02-24T02:39:24;5.60;99.90
12911;DHT22;6523;49.758;6.120;2023-02-24T02:44:28;5.80;99.90
12911;DHT22;6523;49.758;6.120;2023-02-24T02:47:02;5.90;99.90
12911;DHT22;6523;49.758;6.120;2023-02-24T02:49:58;5.80;99.90
12911;DHT22;6523;49.758;6.120;2023-02-24T02:52:39;5.80;99.90
12911;DHT22;6523;49.758;6.120;2023-02-24T02:55:43;5.80;99.90
12911;DHT22;6523;49.758;6.120;2023-02-24T02:58:14;5.80;99.90
12911;DHT22;6523;49.758;6.120;2023-02-24T03:00:47;5.80;99.90
12911;DHT22;6523;49.758;6.120;2023-02-24T03:03:23;5.80;99.90
12911;DHT22;6523;49.758;6.120;2023-02-24T03:05:56;5.70;99.90
12911;DHT22;6523;49.758;6.120;2023-02-24T03:08:28;5.70;99.90
12911;DHT22;6523;49.758;6.120;2023-02-24T03:10:57;5.70;99.90
12911;DHT22;6523;49.758;6.120;2023-02-24T03:13:26;5.70;99.90
12911;DHT22;6523;49.758;6.120;2023-02-24T03:15:57;5.70;99.90
12911;DHT22;6523;49.758;6.120;2023-02-24T03:18:30;5.70;99.90
12911;DHT22;6523;49.758;6.120;2023-02-24T03:21:04;5.60;99.90
12911;DHT22;6523;49.758;6.120;2023-02-24T03:23:36;5.60;99.90
12911;DHT22;6523;49.758;6.120;2023-02-24T03:28:46;5.60;99.90
12911;DHT22;6523;49.758;6.120;2023-02-24T03:31:36;5.60;99.90
12911;DHT22;6523;49.758;6.120;2023-02-24T03:34:23;5.60;99.90
12911;DHT22;6523;49.758;6.120;2023-02-24T03:36:49;5.60;99.90
12911;DHT22;6523;49.758;6.120;2023-02-24T03:39:15;5.60;99.90
12911;DHT22;6523;49.758;6.120;2023-02-24T03:42:14;5.60;99.90
12911;DHT22;6523;49.758;6.120;2023-02-24T03:44:42;5.60;99.90
12911;DHT22;6523;49.758;6.120;2023-02-24T03:47:10;5.60;99.90
12911;DHT22;6523;49.758;6.120;2023-02-24T03:49:36;5.60;99.90
12911;DHT22;6523;49.758;6.120;2023-02-24T03:52:11;5.60;99.90
12911;DHT22;6523;49.758;6.120;2023-02-24T03:55:08;5.50;99.90
12911;DHT22;6523;49.758;6.120;2023-02-24T04:00:40;5.50;99.90
12911;DHT22;6523;49.758;6.120;2023-02-24T04:03:38;5.40;99.90
12911;DHT22;6523;49.758;6.120;2023-02-24T04:06:20;5.50;99.90
12911;DHT22;6523;49.758;6.120;2023-02-24T04:09:25;5.50;99.90
12911;DHT22;6523;49.758;6.120;2023-02-24T04:12:08;5.40;99.90
12911;DHT22;6523;49.758;6.120;2023-02-24T04:14:57;5.40;99.90
12911;DHT22;6523;49.758;6.120;2023-02-24T04:17:44;5.40;99.90
12911;DHT22;6523;49.758;6.120;2023-02-24T04:20:12;5.40;99.90
12911;DHT22;6523;49.758;6.120;2023-02-24T04:22:44;5.40;99.90
12911;DHT22;6523;49.758;6.120;2023-02-24T04:25:15;5.40;99.90
12911;DHT22;6523;49.758;6.120;2023-02-24T04:27:44;5.30;99.90
12911;DHT22;6523;49.758;6.120;2023-02-24T04:30:11;5.30;99.90
12911;DHT22;6523;49.758;6.120;2023-02-24T04:32:37;5.40;99.90
12911;DHT22;6523;49.758;6.120;2023-02-24T04:35:08;5.40;99.90
12911;DHT22;6523;49.758;6.120;2023-02-24T04:37:34;5.40;99.90
12911;DHT22;6523;49.758;6.120;2023-02-24T04:40:01;5.50;99.90
12911;DHT22;6523;49.758;6.120;2023-02-24T04:42:33;5.50;99.90
12911;DHT22;6523;49.758;6.120;2023-02-24T04:44:58;5.30;99.90
12911;DHT22;6523;49.758;6.120;2023-02-24T04:47:24;5.20;99.90
12911;DHT22;6523;49.758;6.120;2023-02-24T04:49:53;5.20;99.90
12911;DHT22;6523;49.758;6.120;2023-02-24T04:52:19;5.20;99.90
12911;DHT22;6523;49.758;6.120;2023-02-24T04:54:45;5.20;99.90
12911;DHT22;6523;49.758;6.120;2023-02-24T04:57:12;5.20;99.90
12911;DHT22;6523;49.758;6.120;2023-02-24T04:59:38;5.30;99.90
12911;DHT22;6523;49.758;6.120;2023-02-24T05:02:05;5.30;99.90
12911;DHT22;6523;49.758;6.120;2023-02-24T05:04:34;5.30;99.90
12911;DHT22;6523;49.758;6.120;2023-02-24T05:07:03;5.30;99.90
12911;DHT22;6523;49.758;6.120;2023-02-24T05:09:28;5.30;99.90
12911;DHT22;6523;49.758;6.120;2023-02-24T05:11:56;5.30;99.90
12911;DHT22;6523;49.758;6.120;2023-02-24T05:14:21;5.30;99.90
12911;DHT22;6523;49.758;6.120;2023-02-24T05:16:48;5.30;99.90
12911;DHT22;6523;49.758;6.120;2023-02-24T05:19:17;5.20;99.90
12911;DHT22;6523;49.758;6.120;2023-02-24T05:22:02;5.30;99.90
12911;DHT22;6523;49.758;6.120;2023-02-24T05:24:30;5.30;99.90
12911;DHT22;6523;49.758;6.120;2023-02-24T05:26:56;5.30;99.90
12911;DHT22;6523;49.758;6.120;2023-02-24T05:29:27;5.20;99.90
12911;DHT22;6523;49.758;6.120;2023-02-24T05:31:54;5.30;99.90
12911;DHT22;6523;49.758;6.120;2023-02-24T05:34:23;5.30;99.90
12911;DHT22;6523;49.758;6.120;2023-02-24T05:36:49;5.30;99.90
12911;DHT22;6523;49.758;6.120;2023-02-24T05:39:16;5.20;99.90
12911;DHT22;6523;49.758;6.120;2023-02-24T05:41:45;5.20;99.90
12911;DHT22;6523;49.758;6.120;2023-02-24T05:44:17;5.20;99.90
12911;DHT22;6523;49.758;6.120;2023-02-24T05:46:48;5.20;99.90
12911;DHT22;6523;49.758;6.120;2023-02-24T05:49:20;5.30;99.90
12911;DHT22;6523;49.758;6.120;2023-02-24T05:51:53;5.20;99.90
12911;DHT22;6523;49.758;6.120;2023-02-24T05:54:33;5.10;99.90
12911;DHT22;6523;49.758;6.120;2023-02-24T05:57:05;5.10;99.90
12911;DHT22;6523;49.758;6.120;2023-02-24T05:59:33;5.10;99.90
12911;DHT22;6523;49.758;6.120;2023-02-24T06:02:04;5.20;99.90
12911;DHT22;6523;49.758;6.120;2023-02-24T06:04:32;5.20;99.90
12911;DHT22;6523;49.758;6.120;2023-02-24T06:07:13;5.10;99.90
12911;DHT22;6523;49.758;6.120;2023-02-24T06:09:46;5.00;99.90
12911;DHT22;6523;49.758;6.120;2023-02-24T06:12:15;5.10;99.90
12911;DHT22;6523;49.758;6.120;2023-02-24T06:14:41;5.20;99.90
12911;DHT22;6523;49.758;6.120;2023-02-24T06:17:07;5.20;99.90
12911;DHT22;6523;49.758;6.120;2023-02-24T06:19:32;5.20;99.90
12911;DHT22;6523;49.758;6.120;2023-02-24T06:21:59;5.30;99.90
12911;DHT22;6523;49.758;6.120;2023-02-24T06:24:27;5.20;99.90
12911;DHT22;6523;49.758;6.120;2023-02-24T06:26:53;5.20;99.90
12911;DHT22;6523;49.758;6.120;2023-02-24T06:29:25;5.20;99.90
12911;DHT22;6523;49.758;6.120;2023-02-24T06:31:53;5.10;99.90
12911;DHT22;6523;49.758;6.120;2023-02-24T06:34:19;5.10;99.90
12911;DHT22;6523;49.758;6.120;2023-02-24T06:36:45;5.10;99.90
12911;DHT22;6523;49.758;6.120;2023-02-24T06:39:13;5.10;99.90
12911;DHT22;6523;49.758;6.120;2023-02-24T06:41:39;5.20;99.90
12911;DHT22;6523;49.758;6.120;2023-02-24T06:44:05;5.20;99.90
12911;DHT22;6523;49.758;6.120;2023-02-24T06:46:30;5.20;99.90
12911;DHT22;6523;49.758;6.120;2023-02-24T06:48:56;5.30;99.90
12911;DHT22;6523;49.758;6.120;2023-02-24T06:51:25;5.30;99.90
12911;DHT22;6523;49.758;6.120;2023-02-24T06:53:57;5.30;99.90
12911;DHT22;6523;49.758;6.120;2023-02-24T06:56:24;5.30;99.90
12911;DHT22;6523;49.758;6.120;2023-02-24T06:58:53;5.30;99.90
12911;DHT22;6523;49.758;6.120;2023-02-24T07:01:22;5.30;99.90
12911;DHT22;6523;49.758;6.120;2023-02-24T07:03:51;5.20;99.90
12911;DHT22;6523;49.758;6.120;2023-02-24T07:06:33;5.20;99.90
12911;DHT22;6523;49.758;6.120;2023-02-24T07:09:02;5.30;99.90
12911;DHT22;6523;49.758;6.120;2023-02-24T07:11:33;5.30;99.90
12911;DHT22;6523;49.758;6.120;2023-02-24T07:13:59;5.40;99.90
12911;DHT22;6523;49.758;6.120;2023-02-24T07:16:26;5.40;99.90
12911;DHT22;6523;49.758;6.120;2023-02-24T07:18:57;5.50;99.90
12911;DHT22;6523;49.758;6.120;2023-02-24T07:21:25;5.50;99.90
12911;DHT22;6523;49.758;6.120;2023-02-24T07:23:52;5.50;99.90
12911;DHT22;6523;49.758;6.120;2023-02-24T07:26:25;5.60;99.90
12911;DHT22;6523;49.758;6.120;2023-02-24T07:28:53;5.60;99.90
12911;DHT22;6523;49.758;6.120;2023-02-24T07:31:23;5.60;99.90
12911;DHT22;6523;49.758;6.120;2023-02-24T07:33:54;5.70;99.90
12911;DHT22;6523;49.758;6.120;2023-02-24T07:36:21;5.70;99.90
12911;DHT22;6523;49.758;6.120;2023-02-24T07:38:55;5.80;99.90
12911;DHT22;6523;49.758;6.120;2023-02-24T07:41:24;5.80;99.90
12911;DHT22;6523;49.758;6.120;2023-02-24T07:43:52;5.80;99.90
12911;DHT22;6523;49.758;6.120;2023-02-24T07:46:24;5.70;99.90
12911;DHT22;6523;49.758;6.120;2023-02-24T07:48:51;5.80;99.90
12911;DHT22;6523;49.758;6.120;2023-02-24T07:51:23;5.80;99.90
12911;DHT22;6523;49.758;6.120;2023-02-24T07:53:51;5.90;99.90
12911;DHT22;6523;49.758;6.120;2023-02-24T07:56:19;6.00;99.90
12911;DHT22;6523;49.758;6.120;2023-02-24T07:58:48;6.00;99.90
12911;DHT22;6523;49.758;6.120;2023-02-24T08:01:27;6.10;99.90
12911;DHT22;6523;49.758;6.120;2023-02-24T08:03:55;6.10;99.90
12911;DHT22;6523;49.758;6.120;2023-02-24T08:06:29;6.00;99.90
12911;DHT22;6523;49.758;6.120;2023-02-24T08:09:06;6.00;99.90
12911;DHT22;6523;49.758;6.120;2023-02-24T08:14:11;6.00;99.90
12911;DHT22;6523;49.758;6.120;2023-02-24T08:16:41;6.10;99.90
12911;DHT22;6523;49.758;6.120;2023-02-24T08:19:10;6.20;99.90
12911;DHT22;6523;49.758;6.120;2023-02-24T08:21:42;6.20;99.90
12911;DHT22;6523;49.758;6.120;2023-02-24T08:24:15;6.20;99.90
12911;DHT22;6523;49.758;6.120;2023-02-24T08:26:52;6.20;99.90
12911;DHT22;6523;49.758;6.120;2023-02-24T08:31:56;6.40;99.90
12911;DHT22;6523;49.758;6.120;2023-02-24T08:34:23;6.30;99.90
12911;DHT22;6523;49.758;6.120;2023-02-24T08:36:51;6.40;99.90
12911;DHT22;6523;49.758;6.120;2023-02-24T08:39:21;6.50;99.90
12911;DHT22;6523;49.758;6.120;2023-02-24T08:41:47;6.60;99.90
12911;DHT22;6523;49.758;6.120;2023-02-24T08:44:17;6.70;99.90
12911;DHT22;6523;49.758;6.120;2023-02-24T08:46:46;6.80;99.90
12911;DHT22;6523;49.758;6.120;2023-02-24T08:49:17;7.00;99.90
12911;DHT22;6523;49.758;6.120;2023-02-24T08:51:46;7.00;99.90
12911;DHT22;6523;49.758;6.120;2023-02-24T08:54:18;7.00;99.90
12911;DHT22;6523;49.758;6.120;2023-02-24T08:56:52;7.10;99.90
12911;DHT22;6523;49.758;6.120;2023-02-24T08:59:22;6.90;99.90
12911;DHT22;6523;49.758;6.120;2023-02-24T09:02:04;6.90;99.90
12911;DHT22;6523;49.758;6.120;2023-02-24T09:04:44;7.10;99.90
12911;DHT22;6523;49.758;6.120;2023-02-24T09:09:47;6.90;99.90
12911;DHT22;6523;49.758;6.120;2023-02-24T09:12:13;7.10;99.90
12911;DHT22;6523;49.758;6.120;2023-02-24T09:14:48;7.10;99.90
12911;DHT22;6523;49.758;6.120;2023-02-24T09:17:14;7.00;99.90
12911;DHT22;6523;49.758;6.120;2023-02-24T09:19:47;7.20;99.90
12911;DHT22;6523;49.758;6.120;2023-02-24T09:25:08;7.40;99.90
12911;DHT22;6523;49.758;6.120;2023-02-24T09:30:26;7.40;99.90
12911;DHT22;6523;49.758;6.120;2023-02-24T09:33:15;7.50;99.90
12911;DHT22;6523;49.758;6.120;2023-02-24T09:35:55;7.50;99.90
12911;DHT22;6523;49.758;6.120;2023-02-24T09:38:46;7.70;99.90
12911;DHT22;6523;49.758;6.120;2023-02-24T09:41:43;8.10;99.90
12911;DHT22;6523;49.758;6.120;2023-02-24T09:47:16;8.10;99.90
12911;DHT22;6523;49.758;6.120;2023-02-24T09:50:04;8.10;99.90
12911;DHT22;6523;49.758;6.120;2023-02-24T09:52:31;8.10;99.90
12911;DHT22;6523;49.758;6.120;2023-02-24T10:03:32;9.10;99.90
12911;DHT22;6523;49.758;6.120;2023-02-24T10:08:58;8.70;99.90
12911;DHT22;6523;49.758;6.120;2023-02-24T10:11:46;8.80;99.90
12911;DHT22;6523;49.758;6.120;2023-02-24T10:17:16;9.50;99.90
12911;DHT22;6523;49.758;6.120;2023-02-24T10:19:55;10.00;99.90
12911;DHT22;6523;49.758;6.120;2023-02-24T10:22:38;10.10;99.90
12911;DHT22;6523;49.758;6.120;2023-02-24T10:25:28;10.30;99.90
12911;DHT22;6523;49.758;6.120;2023-02-24T10:28:40;10.20;99.90
12911;DHT22;6523;49.758;6.120;2023-02-24T10:31:12;9.60;99.90
12911;DHT22;6523;49.758;6.120;2023-02-24T10:34:12;9.40;99.90
12911;DHT22;6523;49.758;6.120;2023-02-24T10:36:44;9.30;99.90
12911;DHT22;6523;49.758;6.120;2023-02-24T10:39:18;9.00;99.90
12911;DHT22;6523;49.758;6.120;2023-02-24T10:44:28;8.80;99.90
12911;DHT22;6523;49.758;6.120;2023-02-24T10:47:11;8.60;99.90
12911;DHT22;6523;49.758;6.120;2023-02-24T10:49:48;8.80;99.90
12911;DHT22;6523;49.758;6.120;2023-02-24T10:55:31;8.60;99.90
12911;DHT22;6523;49.758;6.120;2023-02-24T10:58:22;8.70;99.90
12911;DHT22;6523;49.758;6.120;2023-02-24T11:01:04;8.80;99.90
12911;DHT22;6523;49.758;6.120;2023-02-24T11:03:47;8.80;99.90
12911;DHT22;6523;49.758;6.120;2023-02-24T11:06:30;8.70;99.90
12911;DHT22;6523;49.758;6.120;2023-02-24T11:09:14;9.00;99.90
12911;DHT22;6523;49.758;6.120;2023-02-24T11:11:53;9.50;99.90
12911;DHT22;6523;49.758;6.120;2023-02-24T11:14:54;9.80;99.90
12911;DHT22;6523;49.758;6.120;2023-02-24T11:17:54;10.30;99.90
12911;DHT22;6523;49.758;6.120;2023-02-24T11:20:28;10.20;99.90
12911;DHT22;6523;49.758;6.120;2023-02-24T11:22:54;10.10;99.90
12911;DHT22;6523;49.758;6.120;2023-02-24T11:25:32;10.10;99.90
12911;DHT22;6523;49.758;6.120;2023-02-24T11:27:59;10.60;99.90
12911;DHT22;6523;49.758;6.120;2023-02-24T11:30:36;10.60;99.90
12911;DHT22;6523;49.758;6.120;2023-02-24T11:33:14;10.70;99.90
12911;DHT22;6523;49.758;6.120;2023-02-24T11:41:22;10.80;99.90
12911;DHT22;6523;49.758;6.120;2023-02-24T11:44:13;10.30;99.90
12911;DHT22;6523;49.758;6.120;2023-02-24T11:49:50;9.20;99.90
12911;DHT22;6523;49.758;6.120;2023-02-24T11:52:24;9.40;99.90
12911;DHT22;6523;49.758;6.120;2023-02-24T11:54:55;9.90;99.90
12911;DHT22;6523;49.758;6.120;2023-02-24T11:57:38;9.70;99.90
12911;DHT22;6523;49.758;6.120;2023-02-24T12:00:23;9.80;99.90
12911;DHT22;6523;49.758;6.120;2023-02-24T12:03:22;9.40;99.90
12911;DHT22;6523;49.758;6.120;2023-02-24T12:05:54;9.90;99.90
12911;DHT22;6523;49.758;6.120;2023-02-24T12:08:29;10.20;99.90
12911;DHT22;6523;49.758;6.120;2023-02-24T12:11:02;11.00;99.90
12911;DHT22;6523;49.758;6.120;2023-02-24T12:16:36;11.10;99.90
12911;DHT22;6523;49.758;6.120;2023-02-24T12:19:21;10.60;99.90
12911;DHT22;6523;49.758;6.120;2023-02-24T12:22:06;10.00;99.90
12911;DHT22;6523;49.758;6.120;2023-02-24T12:24:44;10.40;99.90
12911;DHT22;6523;49.758;6.120;2023-02-24T12:28:04;10.50;99.90
12911;DHT22;6523;49.758;6.120;2023-02-24T12:30:44;10.70;99.90
12911;DHT22;6523;49.758;6.120;2023-02-24T12:33:43;10.30;99.90
12911;DHT22;6523;49.758;6.120;2023-02-24T12:36:24;10.10;99.90
12911;DHT22;6523;49.758;6.120;2023-02-24T12:42:00;10.50;99.90
12911;DHT22;6523;49.758;6.120;2023-02-24T12:44:34;10.80;99.90
12911;DHT22;6523;49.758;6.120;2023-02-24T12:47:09;11.00;99.90
12911;DHT22;6523;49.758;6.120;2023-02-24T12:49:46;10.80;99.90
12911;DHT22;6523;49.758;6.120;2023-02-24T12:52:33;10.60;99.90
12911;DHT22;6523;49.758;6.120;2023-02-24T12:57:59;10.50;99.90
12911;DHT22;6523;49.758;6.120;2023-02-24T13:00:44;10.60;99.90
12911;DHT22;6523;49.758;6.120;2023-02-24T13:09:02;10.50;99.90
12911;DHT22;6523;49.758;6.120;2023-02-24T13:11:37;10.10;99.90
12911;DHT22;6523;49.758;6.120;2023-02-24T13:14:20;10.00;99.90
12911;DHT22;6523;49.758;6.120;2023-02-24T13:16:47;9.90;99.90
12911;DHT22;6523;49.758;6.120;2023-02-24T13:19:20;9.50;99.90
12911;DHT22;6523;49.758;6.120;2023-02-24T13:24:23;9.70;99.90
12911;DHT22;6523;49.758;6.120;2023-02-24T13:26:50;9.80;99.90
12911;DHT22;6523;49.758;6.120;2023-02-24T13:29:16;9.60;99.90
12911;DHT22;6523;49.758;6.120;2023-02-24T13:31:50;9.30;99.90
12911;DHT22;6523;49.758;6.120;2023-02-24T13:34:42;9.40;99.90
12911;DHT22;6523;49.758;6.120;2023-02-24T13:37:09;9.40;99.90
12911;DHT22;6523;49.758;6.120;2023-02-24T13:39:38;9.50;99.90
12911;DHT22;6523;49.758;6.120;2023-02-24T13:42:20;9.30;99.90
12911;DHT22;6523;49.758;6.120;2023-02-24T13:58:57;10.60;99.90
12911;DHT22;6523;49.758;6.120;2023-02-24T14:01:28;11.40;99.90
12911;DHT22;6523;49.758;6.120;2023-02-24T14:04:15;11.90;99.90
12911;DHT22;6523;49.758;6.120;2023-02-24T14:06:51;11.70;99.90
12911;DHT22;6523;49.758;6.120;2023-02-24T14:09:22;12.40;99.90
12911;DHT22;6523;49.758;6.120;2023-02-24T14:11:53;12.10;99.90
12911;DHT22;6523;49.758;6.120;2023-02-24T14:14:22;11.70;99.90
12911;DHT22;6523;49.758;6.120;2023-02-24T14:16:50;10.80;99.90
12911;DHT22;6523;49.758;6.120;2023-02-24T14:19:16;11.40;99.90
12911;DHT22;6523;49.758;6.120;2023-02-24T14:21:50;11.40;99.90
12911;DHT22;6523;49.758;6.120;2023-02-24T14:24:16;11.20;99.90
12911;DHT22;6523;49.758;6.120;2023-02-24T14:27:00;11.00;99.90
12911;DHT22;6523;49.758;6.120;2023-02-24T14:29:28;11.40;99.90
12911;DHT22;6523;49.758;6.120;2023-02-24T14:31:57;11.30;99.90
12911;DHT22;6523;49.758;6.120;2023-02-24T14:34:27;10.80;99.90
12911;DHT22;6523;49.758;6.120;2023-02-24T14:36:56;10.20;98.80
12911;DHT22;6523;49.758;6.120;2023-02-24T14:39:24;10.70;99.90
12911;DHT22;6523;49.758;6.120;2023-02-24T14:42:02;11.40;99.90
12911;DHT22;6523;49.758;6.120;2023-02-24T14:44:28;10.90;94.50
12911;DHT22;6523;49.758;6.120;2023-02-24T14:47:01;10.50;93.00
12911;DHT22;6523;49.758;6.120;2023-02-24T14:49:31;9.70;82.40
12911;DHT22;6523;49.758;6.120;2023-02-24T14:52:04;9.80;81.20
12911;DHT22;6523;49.758;6.120;2023-02-24T14:57:23;10.00;77.30
12911;DHT22;6523;49.758;6.120;2023-02-24T14:59:57;10.00;80.90
12911;DHT22;6523;49.758;6.120;2023-02-24T15:02:29;10.30;73.30
12911;DHT22;6523;49.758;6.120;2023-02-24T15:04:57;10.90;78.30
12911;DHT22;6523;49.758;6.120;2023-02-24T15:07:29;10.30;69.90
12911;DHT22;6523;49.758;6.120;2023-02-24T15:09:56;10.10;63.10
12911;DHT22;6523;49.758;6.120;2023-02-24T15:12:32;9.70;64.70
12911;DHT22;6523;49.758;6.120;2023-02-24T15:15:05;10.40;82.80
12911;DHT22;6523;49.758;6.120;2023-02-24T15:17:32;11.10;75.30
12911;DHT22;6523;49.758;6.120;2023-02-24T15:20:02;11.40;84.90
12911;DHT22;6523;49.758;6.120;2023-02-24T15:22:32;10.50;50.10
12911;DHT22;6523;49.758;6.120;2023-02-24T15:25:19;11.10;57.60
12911;DHT22;6523;49.758;6.120;2023-02-24T15:30:33;11.60;33.80
12911;DHT22;6523;49.758;6.120;2023-02-24T15:35:30;10.30;29.80
12911;DHT22;6523;49.758;6.120;2023-02-24T15:37:59;10.60;33.70
12911;DHT22;6523;49.758;6.120;2023-02-24T15:40:25;10.80;43.10
12911;DHT22;6523;49.758;6.120;2023-02-24T15:42:57;10.80;48.80
12911;DHT22;6523;49.758;6.120;2023-02-24T15:47:56;11.80;53.30
12911;DHT22;6523;49.758;6.120;2023-02-24T15:50:22;11.60;46.60
12911;DHT22;6523;49.758;6.120;2023-02-24T15:52:48;11.60;46.90
12911;DHT22;6523;49.758;6.120;2023-02-24T15:55:15;11.50;42.40
12911;DHT22;6523;49.758;6.120;2023-02-24T15:57:41;11.00;40.20
12911;DHT22;6523;49.758;6.120;2023-02-24T16:00:07;11.40;53.40
12911;DHT22;6523;49.758;6.120;2023-02-24T16:02:39;11.50;38.20
12911;DHT22;6523;49.758;6.120;2023-02-24T16:05:06;11.80;48.90
12911;DHT22;6523;49.758;6.120;2023-02-24T16:07:34;11.70;46.20
12911;DHT22;6523;49.758;6.120;2023-02-24T16:10:01;10.60;35.60
12911;DHT22;6523;49.758;6.120;2023-02-24T16:12:28;10.40;41.80
12911;DHT22;6523;49.758;6.120;2023-02-24T16:14:57;10.00;46.80
12911;DHT22;6523;49.758;6.120;2023-02-24T16:17:34;10.10;50.30
12911;DHT22;6523;49.758;6.120;2023-02-24T16:20:02;9.60;48.40
12911;DHT22;6523;49.758;6.120;2023-02-24T16:22:32;9.50;49.70
12911;DHT22;6523;49.758;6.120;2023-02-24T16:24:58;9.60;51.10
12911;DHT22;6523;49.758;6.120;2023-02-24T16:27:24;9.50;52.30
12911;DHT22;6523;49.758;6.120;2023-02-24T16:29:52;9.60;53.00
12911;DHT22;6523;49.758;6.120;2023-02-24T16:32:18;9.70;56.40
12911;DHT22;6523;49.758;6.120;2023-02-24T16:34:46;9.90;53.90
12911;DHT22;6523;49.758;6.120;2023-02-24T16:39:45;9.70;55.00
12911;DHT22;6523;49.758;6.120;2023-02-24T16:42:11;9.30;59.30
12911;DHT22;6523;49.758;6.120;2023-02-24T16:44:37;9.00;65.00
12911;DHT22;6523;49.758;6.120;2023-02-24T16:47:05;9.00;68.10
12911;DHT22;6523;49.758;6.120;2023-02-24T16:49:31;8.70;70.80
12911;DHT22;6523;49.758;6.120;2023-02-24T16:51:57;8.60;77.60
12911;DHT22;6523;49.758;6.120;2023-02-24T16:54:23;8.60;82.50
12911;DHT22;6523;49.758;6.120;2023-02-24T16:56:54;8.60;88.40
12911;DHT22;6523;49.758;6.120;2023-02-24T16:59:21;8.60;89.60
12911;DHT22;6523;49.758;6.120;2023-02-24T17:01:47;8.40;92.40
12911;DHT22;6523;49.758;6.120;2023-02-24T17:04:12;8.30;94.30
12911;DHT22;6523;49.758;6.120;2023-02-24T17:06:39;8.20;96.00
12911;DHT22;6523;49.758;6.120;2023-02-24T17:09:05;8.10;98.30
12911;DHT22;6523;49.758;6.120;2023-02-24T17:11:31;8.10;99.90
12911;DHT22;6523;49.758;6.120;2023-02-24T17:13:57;8.00;99.90
12911;DHT22;6523;49.758;6.120;2023-02-24T17:16:23;8.00;99.90
12911;DHT22;6523;49.758;6.120;2023-02-24T17:18:49;8.00;99.90
12911;DHT22;6523;49.758;6.120;2023-02-24T17:21:15;8.00;99.90
12911;DHT22;6523;49.758;6.120;2023-02-24T17:23:42;7.90;99.90
12911;DHT22;6523;49.758;6.120;2023-02-24T17:26:14;7.90;99.90
12911;DHT22;6523;49.758;6.120;2023-02-24T17:28:39;8.00;99.90
12911;DHT22;6523;49.758;6.120;2023-02-24T17:31:05;7.90;99.90
12911;DHT22;6523;49.758;6.120;2023-02-24T17:33:35;7.70;99.90
12911;DHT22;6523;49.758;6.120;2023-02-24T17:36:00;7.60;99.90
12911;DHT22;6523;49.758;6.120;2023-02-24T17:38:26;7.50;99.90
12911;DHT22;6523;49.758;6.120;2023-02-24T17:40:52;7.40;99.90
12911;DHT22;6523;49.758;6.120;2023-02-24T17:43:20;7.40;99.90
12911;DHT22;6523;49.758;6.120;2023-02-24T17:45:46;7.50;99.90
12911;DHT22;6523;49.758;6.120;2023-02-24T17:48:13;7.40;99.90
12911;DHT22;6523;49.758;6.120;2023-02-24T17:50:43;7.30;99.90
12911;DHT22;6523;49.758;6.120;2023-02-24T17:53:09;7.30;99.90
12911;DHT22;6523;49.758;6.120;2023-02-24T17:55:35;7.20;99.90
12911;DHT22;6523;49.758;6.120;2023-02-24T17:58:00;7.10;99.90
12911;DHT22;6523;49.758;6.120;2023-02-24T18:00:27;7.10;99.90
12911;DHT22;6523;49.758;6.120;2023-02-24T18:02:53;7.00;99.90
12911;DHT22;6523;49.758;6.120;2023-02-24T18:05:19;7.00;99.90
12911;DHT22;6523;49.758;6.120;2023-02-24T18:07:44;7.00;99.90
12911;DHT22;6523;49.758;6.120;2023-02-24T18:10:10;6.90;99.90
12911;DHT22;6523;49.758;6.120;2023-02-24T18:12:36;6.90;99.90
12911;DHT22;6523;49.758;6.120;2023-02-24T18:15:03;6.80;99.90
12911;DHT22;6523;49.758;6.120;2023-02-24T18:17:29;6.70;99.90
12911;DHT22;6523;49.758;6.120;2023-02-24T18:19:56;6.60;99.90